Time;durP1;ratioP1;P1;durP2;ratioP2;P2;SDS_P1;SDS_P2;PMS_P1;PMS_P2;Temp;Humidity;BMP_temperature;BMP_pressure;BME280_temperature;BME280_humidity;BME280_pressure;Samples;Min_cycle;Max_cycle;Signal;HPM_P1;HPM_P2
2024/01/15 00:00:11;;;;;;;6.97;4.00;;;5.60;56.20;;;;;;5039349;28;20056;-63
2024/01/15 00:02:40;;;;;;;6.07;3.53;;;5.70;55.90;;;;;;5029120;28;21258;-62
2024/01/15 00:05:10;;;;;;;10.13;3.88;;;5.70;55.70;;;;;;5041691;28;20063;-63
2024/01/15 00:07:38;;;;;;;7.65;3.72;;;5.60;55.60;;;;;;5053730;28;20056;-61
2024/01/15 00:10:07;;;;;;;15.32;6.13;;;5.60;56.40;;;;;;5027075;28;20080;-59
2024/01/15 00:12:35;;;;;;;14.55;4.00;;;5.70;55.80;;;;;;5036536;28;20413;-61
2024/01/15 00:15:04;;;;;;;6.53;3.47;;;5.70;55.80;;;;;;5037723;28;20050;-59
2024/01/15 00:17:33;;;;;;;8.90;3.03;;;5.70;56.00;;;;;;5054945;28;20064;-62
2024/01/15 00:20:01;;;;;;;10.27;4.18;;;5.70;55.60;;;;;;5044246;28;20061;-61
2024/01/15 00:22:31;;;;;;;11.75;6.22;;;5.70;55.70;;;;;;5035644;28;20080;-61
2024/01/15 00:25:00;;;;;;;9.57;3.90;;;5.60;55.60;;;;;;5035573;28;20135;-61
2024/01/15 00:27:28;;;;;;;10.88;4.28;;;5.60;55.60;;;;;;5028853;28;20057;-61
2024/01/15 00:29:56;;;;;;;12.02;3.67;;;5.50;55.60;;;;;;5043903;28;20087;-61
2024/01/15 00:32:25;;;;;;;6.15;3.03;;;5.50;55.70;;;;;;5038893;28;20525;-62
2024/01/15 00:34:53;;;;;;;7.70;4.22;;;5.40;55.70;;;;;;5038481;28;20076;-60
2024/01/15 00:37:21;;;;;;;22.25;6.60;;;5.40;55.70;;;;;;5042949;28;20528;-61
2024/01/15 00:39:51;;;;;;;9.20;4.93;;;5.50;55.90;;;;;;5039868;28;20538;-69
2024/01/15 00:42:20;;;;;;;16.60;6.63;;;5.40;55.70;;;;;;5054333;28;20084;-62
2024/01/15 00:44:48;;;;;;;7.72;4.20;;;5.60;55.70;;;;;;5039350;28;20045;-62
2024/01/15 00:47:16;;;;;;;16.42;5.63;;;5.70;55.70;;;;;;5034907;28;20114;-61
2024/01/15 00:49:45;;;;;;;13.02;4.75;;;5.70;55.60;;;;;;5042985;28;20067;-63
2024/01/15 00:52:13;;;;;;;10.02;4.32;;;5.70;55.70;;;;;;5049156;28;20053;-61
2024/01/15 00:54:42;;;;;;;9.35;5.03;;;5.80;55.70;;;;;;5035275;28;20677;-61
2024/01/15 00:57:12;;;;;;;10.35;3.65;;;5.90;55.60;;;;;;5038407;28;20146;-62
2024/01/15 00:59:40;;;;;;;9.60;4.03;;;5.80;55.50;;;;;;5045517;28;20057;-61
2024/01/15 01:02:09;;;;;;;10.88;5.93;;;5.90;55.50;;;;;;5038279;28;20161;-59
2024/01/15 01:04:37;;;;;;;13.25;4.45;;;5.90;55.60;;;;;;5035023;28;20847;-60
2024/01/15 01:07:05;;;;;;;5.32;3.67;;;5.90;55.40;;;;;;5038292;28;20131;-62
2024/01/15 01:09:33;;;;;;;10.23;4.43;;;5.90;55.50;;;;;;5041915;28;20068;-62
2024/01/15 01:12:02;;;;;;;8.27;4.18;;;5.90;55.40;;;;;;5026602;28;20052;-61
2024/01/15 01:14:32;;;;;;;7.35;4.25;;;5.90;55.40;;;;;;5024923;28;20053;-60
2024/01/15 01:17:01;;;;;;;5.90;2.83;;;6.00;55.50;;;;;;5045614;28;20061;-61
2024/01/15 01:19:30;;;;;;;32.85;11.45;;;6.00;55.80;;;;;;5038607;28;20065;-62
2024/01/15 01:21:59;;;;;;;10.15;6.20;;;6.00;56.10;;;;;;5033054;28;20053;-60
2024/01/15 01:24:27;;;;;;;15.32;5.78;;;6.00;55.40;;;;;;5049608;28;20140;-62
2024/01/15 01:26:55;;;;;;;11.35;6.22;;;6.00;55.50;;;;;;5038062;28;20057;-61
2024/01/15 01:29:23;;;;;;;5.50;3.97;;;6.10;55.50;;;;;;5054631;28;20064;-63
2024/01/15 01:31:53;;;;;;;10.93;4.25;;;6.10;55.40;;;;;;5045910;28;20064;-62
2024/01/15 01:34:21;;;;;;;11.68;5.32;;;6.10;55.40;;;;;;5032570;28;20528;-62
2024/01/15 01:36:49;;;;;;;16.67;4.53;;;6.00;55.40;;;;;;5033205;28;20053;-61
2024/01/15 01:39:19;;;;;;;16.63;5.10;;;6.00;55.40;;;;;;5026647;28;20054;-62
2024/01/15 01:41:47;;;;;;;14.63;5.15;;;6.10;55.40;;;;;;5030217;28;20057;-67
2024/01/15 01:44:15;;;;;;;6.43;3.90;;;6.10;55.40;;;;;;5043356;28;20049;-61
2024/01/15 01:46:44;;;;;;;48.13;11.25;;;6.10;55.40;;;;;;5035116;28;20045;-61
2024/01/15 01:49:13;;;;;;;17.90;7.45;;;6.10;55.30;;;;;;5046509;28;20064;-62
2024/01/15 01:51:42;;;;;;;21.50;8.48;;;6.00;55.40;;;;;;5043432;28;20147;-62
2024/01/15 01:54:13;;;;;;;22.10;6.65;;;6.00;55.40;;;;;;5051417;28;20575;-62
2024/01/15 01:56:43;;;;;;;9.68;3.67;;;6.00;55.30;;;;;;5030441;28;20057;-62
2024/01/15 01:59:12;;;;;;;12.93;5.63;;;5.90;55.30;;;;;;5054590;28;20060;-61
2024/01/15 02:01:42;;;;;;;9.40;4.97;;;5.80;55.20;;;;;;5041301;28;20056;-62
2024/01/15 02:04:13;;;;;;;15.50;4.90;;;5.70;55.20;;;;;;5038356;28;20053;-62
2024/01/15 02:06:44;;;;;;;7.85;4.25;;;5.60;55.30;;;;;;5041390;28;20060;-62
2024/01/15 02:09:14;;;;;;;21.48;6.10;;;5.60;55.50;;;;;;5046116;28;20049;-61
2024/01/15 02:11:43;;;;;;;8.15;3.53;;;5.60;55.60;;;;;;5040593;28;20111;-61
2024/01/15 02:14:11;;;;;;;8.55;3.60;;;5.60;55.70;;;;;;5041669;28;20138;-61
2024/01/15 02:16:40;;;;;;;13.20;4.13;;;5.70;55.60;;;;;;5047686;28;21478;-60
2024/01/15 02:19:08;;;;;;;9.68;4.60;;;5.80;55.60;;;;;;5040108;28;20062;-62
2024/01/15 02:21:38;;;;;;;11.68;5.22;;;5.90;55.60;;;;;;5039189;28;20168;-62
2024/01/15 02:24:07;;;;;;;8.63;3.85;;;6.00;55.60;;;;;;5047267;28;20061;-63
2024/01/15 02:26:37;;;;;;;14.48;4.70;;;6.00;55.50;;;;;;5035665;28;20675;-63
2024/01/15 02:29:07;;;;;;;13.95;4.10;;;6.00;55.50;;;;;;5029601;28;20057;-62
2024/01/15 02:31:36;;;;;;;10.02;3.45;;;6.00;55.60;;;;;;5035545;28;20065;-60
2024/01/15 02:34:05;;;;;;;12.07;5.38;;;6.00;55.70;;;;;;5031861;28;20486;-62
2024/01/15 02:36:34;;;;;;;8.68;4.45;;;6.10;55.80;;;;;;5045379;28;20067;-63
2024/01/15 02:39:03;;;;;;;13.10;5.05;;;6.20;55.90;;;;;;5041969;28;20076;-62
2024/01/15 02:41:32;;;;;;;18.25;5.05;;;6.20;55.80;;;;;;5039022;28;20049;-61
2024/01/15 02:44:01;;;;;;;10.13;4.47;;;6.20;55.80;;;;;;5063833;28;20063;-62
2024/01/15 02:46:29;;;;;;;10.63;5.50;;;6.20;55.90;;;;;;5046666;28;20065;-58
2024/01/15 02:48:57;;;;;;;10.23;4.28;;;6.20;55.80;;;;;;5074884;28;20074;-61
2024/01/15 02:51:25;;;;;;;7.50;4.43;;;6.20;55.90;;;;;;5048303;28;20067;-64
2024/01/15 02:53:54;;;;;;;10.02;5.07;;;6.20;55.90;;;;;;5060134;28;20500;-64
2024/01/15 02:56:22;;;;;;;8.57;4.40;;;6.20;56.00;;;;;;5042205;28;20057;-61
2024/01/15 02:58:52;;;;;;;9.13;5.25;;;6.20;56.10;;;;;;5062522;28;20051;-63
2024/01/15 03:01:20;;;;;;;9.75;3.72;;;6.10;56.10;;;;;;5055233;28;20574;-62
2024/01/15 03:03:48;;;;;;;9.40;4.95;;;6.10;56.10;;;;;;5064962;28;20167;-63
2024/01/15 03:06:17;;;;;;;10.57;4.78;;;6.10;56.20;;;;;;5067442;28;20059;-62
2024/01/15 03:08:45;;;;;;;10.30;3.67;;;6.00;56.20;;;;;;5063690;28;20052;-63
2024/01/15 03:11:14;;;;;;;9.02;4.28;;;6.00;56.40;;;;;;5060701;28;20052;-63
2024/01/15 03:13:42;;;;;;;8.85;5.35;;;6.00;56.40;;;;;;5051167;28;20052;-63
2024/01/15 03:16:11;;;;;;;8.55;4.40;;;6.00;56.50;;;;;;5059281;28;20063;-63
2024/01/15 03:18:41;;;;;;;18.73;5.53;;;6.00;56.50;;;;;;5075160;28;20884;-62
2024/01/15 03:21:09;;;;;;;10.80;6.25;;;6.00;56.50;;;;;;5057396;28;20051;-63
2024/01/15 03:23:37;;;;;;;13.82;4.85;;;5.90;56.50;;;;;;5061268;28;21112;-62
2024/01/15 03:26:06;;;;;;;13.20;5.65;;;5.90;56.50;;;;;;5049900;28;20052;-62
2024/01/15 03:28:34;;;;;;;13.90;5.63;;;5.90;56.60;;;;;;5059748;28;20053;-63
2024/01/15 03:31:02;;;;;;;17.10;5.32;;;6.00;56.70;;;;;;5069755;28;20106;-63
2024/01/15 03:33:32;;;;;;;13.43;5.22;;;5.90;56.70;;;;;;5058797;28;20076;-63
2024/01/15 03:36:01;;;;;;;13.60;6.38;;;6.00;56.90;;;;;;5064184;28;20044;-63
2024/01/15 03:38:30;;;;;;;25.90;7.78;;;6.00;56.80;;;;;;5068009;28;20500;-63
2024/01/15 03:40:58;;;;;;;20.65;8.45;;;5.90;56.80;;;;;;5061064;28;20060;-63
2024/01/15 03:43:28;;;;;;;25.80;9.60;;;6.00;57.00;;;;;;5062629;28;20056;-62
2024/01/15 03:45:56;;;;;;;20.35;8.15;;;6.00;57.00;;;;;;5073806;28;20410;-61
2024/01/15 03:48:25;;;;;;;20.48;8.00;;;6.00;57.00;;;;;;5051261;28;20086;-62
2024/01/15 03:50:55;;;;;;;28.60;10.32;;;6.00;57.00;;;;;;5059497;28;20048;-65
2024/01/15 03:53:23;;;;;;;26.20;11.75;;;6.00;57.00;;;;;;5063056;28;20056;-63
2024/01/15 03:55:51;;;;;;;25.05;8.02;;;6.10;57.00;;;;;;5061417;28;20041;-63
2024/01/15 03:58:20;;;;;;;21.20;7.93;;;6.20;57.00;;;;;;5049928;28;20060;-62
2024/01/15 04:00:48;;;;;;;27.30;10.00;;;6.20;56.90;;;;;;5056972;28;20069;-62
2024/01/15 04:03:17;;;;;;;25.88;8.77;;;6.30;56.90;;;;;;5065344;28;20500;-62
2024/01/15 04:05:45;;;;;;;11.20;5.90;;;6.40;56.90;;;;;;5063146;28;20052;-64
2024/01/15 04:08:15;;;;;;;15.73;6.63;;;6.40;56.90;;;;;;5067895;28;20536;-62
2024/01/15 04:10:44;;;;;;;10.13;4.72;;;6.50;56.90;;;;;;5055404;28;20079;-62
2024/01/15 04:13:12;;;;;;;14.20;5.20;;;6.50;57.00;;;;;;5066350;28;20521;-62
2024/01/15 04:15:40;;;;;;;17.48;5.65;;;6.50;56.80;;;;;;5061678;28;20048;-62
2024/01/15 04:18:08;;;;;;;11.85;5.55;;;6.60;56.80;;;;;;5055963;28;20065;-63
2024/01/15 04:20:38;;;;;;;14.45;5.40;;;6.60;56.70;;;;;;5059610;28;20457;-63
2024/01/15 04:23:06;;;;;;;10.45;5.07;;;6.90;57.20;;;;;;5065238;28;20612;-62
2024/01/15 04:25:36;;;;;;;22.40;5.78;;;6.80;57.00;;;;;;5070478;28;20094;-65
2024/01/15 04:28:05;;;;;;;12.07;4.38;;;6.80;56.70;;;;;;5080124;28;20060;-62
2024/01/15 04:30:33;;;;;;;10.07;3.92;;;6.80;56.60;;;;;;5057781;28;20048;-73
2024/01/15 04:33:02;;;;;;;7.85;4.18;;;6.90;56.60;;;;;;5059836;28;20102;-61
2024/01/15 04:35:31;;;;;;;14.93;5.97;;;6.90;56.60;;;;;;5064595;28;20048;-62
2024/01/15 04:38:00;;;;;;;11.52;4.50;;;6.90;56.80;;;;;;5056850;28;20060;-61
2024/01/15 04:40:28;;;;;;;7.78;3.90;;;7.00;56.50;;;;;;5059401;28;20099;-63
2024/01/15 04:42:58;;;;;;;14.25;6.25;;;7.00;56.50;;;;;;5065770;28;20080;-62
2024/01/15 04:45:28;;;;;;;11.55;5.72;;;7.00;56.40;;;;;;5064938;28;20465;-62
2024/01/15 04:47:57;;;;;;;8.38;4.13;;;7.10;56.40;;;;;;5065084;28;20059;-65
2024/01/15 04:50:26;;;;;;;14.63;4.60;;;7.10;56.40;;;;;;5061387;28;20651;-62
2024/01/15 04:52:54;;;;;;;9.60;4.82;;;7.10;56.40;;;;;;5068060;28;20056;-63
2024/01/15 04:55:24;;;;;;;11.20;4.18;;;7.10;56.40;;;;;;5070001;28;20060;-62
2024/01/15 04:57:52;;;;;;;19.60;6.30;;;7.20;56.40;;;;;;5076002;28;20045;-63
2024/01/15 05:00:23;;;;;;;6.20;3.45;;;7.20;56.30;;;;;;5047431;28;20135;-65
2024/01/15 05:02:52;;;;;;;9.40;3.30;;;7.20;56.70;;;;;;5058955;28;20051;-63
2024/01/15 05:05:20;;;;;;;13.65;4.25;;;7.30;56.30;;;;;;5062374;28;20052;-63
2024/01/15 05:07:49;;;;;;;11.85;3.72;;;7.30;56.20;;;;;;5072804;28;20494;-63
2024/01/15 05:10:17;;;;;;;8.80;3.67;;;7.30;56.10;;;;;;5056163;28;20065;-61
2024/01/15 05:12:46;;;;;;;5.95;3.40;;;7.30;56.10;;;;;;5067548;28;20086;-63
2024/01/15 05:15:14;;;;;;;7.03;3.88;;;7.30;56.40;;;;;;5057542;28;20101;-64
2024/01/15 05:17:44;;;;;;;30.55;3.97;;;7.30;56.10;;;;;;5070133;28;20051;-62
2024/01/15 05:20:12;;;;;;;7.80;3.65;;;7.30;56.00;;;;;;5058971;28;20057;-66
2024/01/15 05:22:41;;;;;;;10.13;3.40;;;7.30;56.00;;;;;;5059996;28;20091;-65
2024/01/15 05:25:09;;;;;;;5.55;3.45;;;7.40;56.10;;;;;;5061251;28;20453;-64
2024/01/15 05:27:38;;;;;;;9.73;3.90;;;7.40;56.30;;;;;;5057971;28;20052;-64
2024/01/15 05:30:07;;;;;;;10.93;4.32;;;7.40;56.10;;;;;;5054126;28;20799;-62
2024/01/15 05:32:35;;;;;;;11.63;3.60;;;7.40;56.00;;;;;;5057998;28;20044;-63
2024/01/15 05:35:06;;;;;;;9.90;4.22;;;7.40;56.00;;;;;;5052710;28;20065;-62
2024/01/15 05:37:34;;;;;;;5.20;2.67;;;7.40;56.00;;;;;;5050940;28;20071;-63
2024/01/15 05:40:05;;;;;;;6.78;3.25;;;7.40;56.00;;;;;;5067182;28;20049;-64
2024/01/15 05:42:34;;;;;;;5.55;3.50;;;7.40;56.00;;;;;;5044426;28;20049;-62
2024/01/15 05:45:04;;;;;;;9.45;3.20;;;7.40;55.90;;;;;;5032983;28;20060;-61
2024/01/15 05:47:33;;;;;;;20.73;4.32;;;7.40;56.00;;;;;;5021094;28;20076;-62
2024/01/15 05:50:02;;;;;;;8.48;2.97;;;7.50;56.00;;;;;;5032184;28;20063;-65
2024/01/15 05:52:32;;;;;;;10.20;3.85;;;7.50;55.90;;;;;;5022711;28;20364;-70
2024/01/15 05:55:00;;;;;;;5.50;2.17;;;7.60;56.00;;;;;;5034853;28;20131;-68
2024/01/15 05:57:29;;;;;;;3.53;2.17;;;7.60;55.90;;;;;;5047325;28;20049;-66
2024/01/15 05:59:57;;;;;;;6.78;2.65;;;7.60;55.80;;;;;;5031140;28;20489;-68
2024/01/15 06:02:26;;;;;;;4.53;2.70;;;7.60;55.70;;;;;;5023053;28;20055;-71
2024/01/15 06:04:54;;;;;;;13.80;3.10;;;7.70;55.80;;;;;;5032002;28;20056;-80
2024/01/15 06:07:23;;;;;;;6.88;2.55;;;7.70;55.70;;;;;;5044473;28;20045;-69
2024/01/15 06:09:53;;;;;;;7.47;3.72;;;7.70;55.70;;;;;;5032586;28;20131;-67
2024/01/15 06:12:21;;;;;;;4.03;2.67;;;7.70;56.30;;;;;;5024750;28;20151;-66
2024/01/15 06:14:50;;;;;;;6.18;3.20;;;7.80;55.60;;;;;;5035879;28;20059;-68
2024/01/15 06:17:18;;;;;;;7.00;3.15;;;7.80;55.60;;;;;;5032222;28;20061;-67
2024/01/15 06:19:47;;;;;;;11.80;2.50;;;7.80;55.50;;;;;;5040980;28;20048;-66
2024/01/15 06:22:15;;;;;;;13.68;3.47;;;7.80;55.80;;;;;;5031360;28;20153;-68
2024/01/15 06:24:43;;;;;;;5.97;3.50;;;7.80;55.50;;;;;;5038475;28;20067;-64
2024/01/15 06:27:13;;;;;;;7.10;3.45;;;7.90;55.50;;;;;;5040936;28;20068;-64
2024/01/15 06:29:47;;;;;;;9.32;3.35;;;7.90;55.50;;;;;;5034520;28;20073;-64
2024/01/15 06:32:19;;;;;;;5.85;2.90;;;7.90;55.40;;;;;;5023344;28;20140;-61
2024/01/15 06:34:47;;;;;;;5.25;3.22;;;7.90;55.40;;;;;;5015661;28;20057;-65
2024/01/15 06:37:16;;;;;;;8.32;3.20;;;7.90;55.40;;;;;;5030057;28;20159;-64
2024/01/15 06:39:44;;;;;;;3.40;2.55;;;7.90;55.30;;;;;;5024755;28;20067;-64
2024/01/15 06:42:15;;;;;;;7.47;3.75;;;7.90;55.40;;;;;;5043947;28;20057;-66
2024/01/15 06:44:44;;;;;;;9.52;2.50;;;7.90;55.40;;;;;;5040301;28;22062;-79
2024/01/15 06:47:12;;;;;;;7.72;2.38;;;7.90;55.40;;;;;;5053244;28;20135;-65
2024/01/15 06:49:40;;;;;;;6.80;2.17;;;7.90;55.30;;;;;;5041818;28;20151;-66
2024/01/15 06:52:09;;;;;;;4.68;1.92;;;7.90;55.30;;;;;;5050179;28;21509;-64
2024/01/15 06:54:37;;;;;;;5.55;2.30;;;7.90;55.30;;;;;;5044082;28;20229;-64
2024/01/15 06:57:07;;;;;;;7.47;3.08;;;7.90;55.30;;;;;;5048475;28;20052;-76
2024/01/15 06:59:37;;;;;;;8.02;2.85;;;7.90;55.30;;;;;;5044642;28;20054;-67
2024/01/15 07:02:06;;;;;;;9.73;2.63;;;8.10;56.00;;;;;;5049411;28;20075;-65
2024/01/15 07:04:35;;;;;;;6.10;2.08;;;8.20;56.20;;;;;;5057839;28;20053;-66
2024/01/15 07:07:03;;;;;;;8.68;2.10;;;8.30;55.20;;;;;;5049760;28;20251;-69
2024/01/15 07:09:31;;;;;;;3.97;2.13;;;8.20;54.90;;;;;;5069919;28;20045;-69
2024/01/15 07:12:00;;;;;;;8.00;2.10;;;8.20;54.90;;;;;;5053600;28;20060;-67
2024/01/15 07:14:28;;;;;;;4.18;2.13;;;8.10;54.90;;;;;;5049776;28;20056;-68
2024/01/15 07:16:58;;;;;;;4.15;2.47;;;8.10;54.90;;;;;;5068926;28;20490;-70
2024/01/15 07:19:26;;;;;;;5.95;3.38;;;8.10;54.80;;;;;;5052315;28;20072;-69
2024/01/15 07:21:56;;;;;;;3.90;2.20;;;8.10;54.80;;;;;;5058796;28;20685;-67
2024/01/15 07:24:30;;;;;;;3.60;1.77;;;8.10;54.70;;;;;;5067761;28;20543;-69
2024/01/15 07:27:00;;;;;;;11.77;2.63;;;8.10;54.70;;;;;;5059181;28;20041;-67
2024/01/15 07:29:35;;;;;;;8.00;2.25;;;8.10;54.70;;;;;;5059814;28;20386;-71
2024/01/15 07:34:55;;;;;;;14.65;5.38;;;8.10;54.70;;;;;;5039494;28;20051;-69
2024/01/15 07:37:25;;;;;;;5.45;2.45;;;8.00;54.70;;;;;;5064580;28;20482;-69
2024/01/15 07:39:58;;;;;;;4.38;2.42;;;8.00;54.70;;;;;;5066957;28;20053;-70
2024/01/15 07:42:27;;;;;;;3.38;1.95;;;8.00;54.70;;;;;;5042848;28;20697;-65
2024/01/15 07:44:56;;;;;;;4.78;2.30;;;8.10;55.00;;;;;;5071049;28;20056;-75
2024/01/15 07:47:26;;;;;;;9.95;3.85;;;8.10;54.70;;;;;;5049980;28;20097;-64
2024/01/15 07:49:55;;;;;;;7.30;2.05;;;8.10;54.70;;;;;;5065092;28;20314;-63
2024/01/15 07:52:31;;;;;;;10.73;3.53;;;8.10;54.70;;;;;;5058916;28;20044;-65
2024/01/15 07:55:03;;;;;;;9.82;2.92;;;8.10;54.70;;;;;;5045271;28;20064;-64
2024/01/15 07:57:35;;;;;;;3.40;1.85;;;8.10;54.60;;;;;;5048272;28;20045;-64
2024/01/15 08:00:07;;;;;;;5.30;2.67;;;8.10;54.60;;;;;;5050007;28;20598;-63
2024/01/15 08:02:43;;;;;;;5.15;2.30;;;8.10;54.60;;;;;;5046230;28;20155;-65
2024/01/15 08:05:12;;;;;;;8.75;3.20;;;8.10;54.60;;;;;;5067015;28;20164;-64
2024/01/15 08:07:41;;;;;;;8.10;2.65;;;8.10;54.80;;;;;;5043476;28;20143;-66
2024/01/15 08:10:13;;;;;;;5.53;2.63;;;8.10;54.70;;;;;;5055938;28;20166;-66
2024/01/15 08:12:43;;;;;;;7.05;3.38;;;8.10;54.70;;;;;;5047428;28;20048;-65
2024/01/15 08:15:12;;;;;;;3.17;2.67;;;8.20;54.70;;;;;;5054579;28;20579;-67
2024/01/15 08:17:44;;;;;;;7.32;3.45;;;8.20;54.60;;;;;;5044034;28;20049;-65
2024/01/15 08:20:12;;;;;;;6.90;3.92;;;8.30;54.70;;;;;;5035806;28;20060;-63
2024/01/15 08:22:42;;;;;;;7.22;2.97;;;8.40;54.70;;;;;;5040385;28;20048;-65
2024/01/15 08:25:11;;;;;;;5.47;2.88;;;8.40;54.50;;;;;;5049217;28;20064;-62
2024/01/15 08:27:40;;;;;;;3.05;2.03;;;8.40;54.40;;;;;;5047131;28;20068;-63
2024/01/15 08:30:10;;;;;;;2.30;1.65;;;8.50;54.80;;;;;;5047315;28;20063;-68
2024/01/15 08:32:42;;;;;;;3.45;1.88;;;8.60;55.00;;;;;;5038237;28;21001;-71
2024/01/15 08:35:13;;;;;;;3.78;2.17;;;8.80;54.70;;;;;;5046925;28;20115;-71
2024/01/15 08:37:42;;;;;;;3.97;2.20;;;8.80;54.40;;;;;;5051492;28;20140;-67
2024/01/15 08:40:11;;;;;;;2.22;1.73;;;8.80;54.30;;;;;;5036332;28;20051;-66
2024/01/15 08:42:40;;;;;;;11.38;2.55;;;8.80;54.20;;;;;;5042791;28;20836;-72
2024/01/15 08:45:09;;;;;;;3.67;1.58;;;8.70;54.10;;;;;;5064977;28;20522;-74
2024/01/15 08:47:37;;;;;;;7.15;2.58;;;8.70;54.10;;;;;;5049460;28;20064;-69
2024/01/15 08:50:10;;;;;;;4.28;2.28;;;8.70;54.00;;;;;;5064343;28;20109;-71
2024/01/15 08:52:40;;;;;;;3.20;1.70;;;8.60;54.00;;;;;;5057242;28;20044;-68
2024/01/15 08:55:09;;;;;;;5.88;1.60;;;8.60;54.40;;;;;;5034901;28;20060;-74
2024/01/15 08:57:37;;;;;;;2.38;1.92;;;8.70;54.20;;;;;;5046303;28;20458;-69
2024/01/15 09:00:08;;;;;;;4.32;2.00;;;8.80;54.30;;;;;;5042978;28;20049;-69
2024/01/15 09:02:37;;;;;;;2.97;1.67;;;8.80;54.20;;;;;;5062436;28;20048;-69
2024/01/15 09:05:06;;;;;;;3.75;2.45;;;8.80;54.10;;;;;;5067571;28;20894;-68
2024/01/15 09:07:35;;;;;;;3.92;1.77;;;8.90;54.20;;;;;;5062316;28;20048;-71
2024/01/15 09:10:10;;;;;;;5.30;2.45;;;8.90;54.10;;;;;;5053341;28;20048;-72
2024/01/15 09:12:40;;;;;;;;;;;8.90;54.10;;;;;;5058634;28;20494;-69
2024/01/15 09:15:10;;;;;;;2.92;1.58;;;9.00;54.10;;;;;;5046918;28;19935;-71
2024/01/15 09:17:39;;;;;;;3.42;2.38;;;8.90;54.00;;;;;;5053616;28;20056;-73
2024/01/15 09:20:09;;;;;;;5.50;2.83;;;8.90;54.00;;;;;;5062880;28;20044;-72
2024/01/15 09:22:40;;;;;;;7.00;2.47;;;8.90;54.10;;;;;;5065111;28;20047;-73
2024/01/15 09:25:11;;;;;;;12.85;3.25;;;8.80;54.00;;;;;;5055406;28;20539;-71
2024/01/15 09:27:39;;;;;;;3.08;2.25;;;8.80;54.20;;;;;;5063446;28;20063;-70
2024/01/15 09:30:09;;;;;;;8.85;2.42;;;8.90;54.20;;;;;;5053444;28;20044;-69
2024/01/15 09:32:39;;;;;;;5.45;3.50;;;9.00;54.20;;;;;;5046658;28;20040;-73
2024/01/15 09:35:09;;;;;;;18.33;3.05;;;9.10;54.20;;;;;;5062360;28;20144;-75
2024/01/15 09:37:39;;;;;;;13.48;3.63;;;9.10;54.10;;;;;;5058884;28;20059;-73
2024/01/15 09:40:17;;;;;;;4.00;2.47;;;9.10;54.00;;;;;;5053580;28;20044;-71
2024/01/15 09:42:48;;;;;;;6.07;2.92;;;9.00;53.90;;;;;;5052915;28;20554;-72
2024/01/15 09:45:17;;;;;;;5.45;3.05;;;8.90;54.00;;;;;;5038589;28;20067;-71
2024/01/15 09:47:46;;;;;;;4.90;3.05;;;8.80;54.10;;;;;;5040958;28;20147;-70
2024/01/15 09:50:15;;;;;;;8.07;4.07;;;8.80;54.40;;;;;;5047932;28;20052;-70
2024/01/15 09:52:45;;;;;;;7.47;4.18;;;8.80;54.50;;;;;;5039848;28;20359;-70
2024/01/15 09:55:17;;;;;;;10.38;4.05;;;8.90;54.70;;;;;;5052357;28;20702;-73
2024/01/15 09:57:47;;;;;;;10.77;4.50;;;9.00;54.80;;;;;;5038670;28;20065;-68
2024/01/15 10:00:20;;;;;;;19.15;5.10;;;9.10;54.70;;;;;;5040202;28;20056;-68
2024/01/15 10:02:49;;;;;;;14.50;6.10;;;9.10;54.60;;;;;;5029872;28;20611;-70
2024/01/15 10:05:18;;;;;;;11.93;5.53;;;9.10;54.60;;;;;;5032890;28;20416;-69
2024/01/15 10:07:49;;;;;;;8.07;4.05;;;9.10;54.60;;;;;;5029498;28;20049;-65
2024/01/15 10:10:24;;;;;;;14.43;4.75;;;9.10;54.40;;;;;;5032019;28;20049;-65
2024/01/15 10:12:57;;;;;;;7.28;3.53;;;9.00;54.40;;;;;;5048699;28;20041;-66
2024/01/15 10:15:27;;;;;;;6.20;2.90;;;9.00;54.70;;;;;;5027344;28;20049;-62
2024/01/15 10:17:56;;;;;;;15.98;4.38;;;9.00;54.70;;;;;;5036892;28;20710;-64
2024/01/15 10:20:24;;;;;;;24.48;4.10;;;9.00;54.60;;;;;;5019125;28;20111;-63
2024/01/15 10:22:57;;;;;;;14.88;3.58;;;9.10;54.80;;;;;;5043291;28;20044;-65
2024/01/15 10:25:26;;;;;;;19.70;3.20;;;9.10;54.70;;;;;;5037134;28;20064;-63
2024/01/15 10:28:02;;;;;;;10.68;3.35;;;9.10;54.70;;;;;;5036173;28;20060;-65
2024/01/15 10:30:32;;;;;;;7.57;3.38;;;9.10;54.70;;;;;;5025340;28;20048;-62
2024/01/15 10:33:02;;;;;;;4.85;2.88;;;9.10;54.70;;;;;;5037278;28;20053;-63
2024/01/15 10:35:32;;;;;;;6.38;3.20;;;9.10;55.30;;;;;;5038707;28;20065;-62
2024/01/15 10:38:01;;;;;;;9.05;3.65;;;9.00;54.80;;;;;;5058162;28;20400;-64
2024/01/15 10:40:31;;;;;;;8.63;3.28;;;9.10;54.90;;;;;;5020015;28;20090;-64
2024/01/15 10:42:59;;;;;;;8.40;3.30;;;9.20;54.80;;;;;;5035610;28;20720;-69
2024/01/15 10:45:29;;;;;;;15.15;4.35;;;9.30;54.90;;;;;;5038212;28;20060;-72
2024/01/15 10:47:58;;;;;;;11.85;3.85;;;9.40;54.90;;;;;;5016166;28;20053;-72
2024/01/15 10:50:31;;;;;;;26.60;8.23;;;9.50;54.70;;;;;;5029055;28;20351;-72
2024/01/15 10:52:59;;;;;;;19.02;6.45;;;9.60;54.60;;;;;;5053004;28;20060;-71
2024/01/15 10:55:31;;;;;;;15.45;4.25;;;9.60;54.70;;;;;;5033816;28;20110;-68
2024/01/15 10:58:04;;;;;;;11.65;4.90;;;9.80;54.70;;;;;;5026625;28;20057;-66
2024/01/15 11:00:35;;;;;;;9.95;4.07;;;9.80;54.60;;;;;;5023949;28;20037;-70
2024/01/15 11:03:09;;;;;;;16.00;4.68;;;9.80;54.60;;;;;;5037841;28;20767;-69
2024/01/15 11:05:39;;;;;;;9.23;3.17;;;9.80;54.50;;;;;;5017857;28;20094;-68
2024/01/15 11:08:10;;;;;;;10.88;3.90;;;9.70;54.30;;;;;;5034133;28;20061;-68
2024/01/15 11:10:46;;;;;;;5.47;2.67;;;9.70;54.40;;;;;;5027482;28;20051;-70
2024/01/15 11:13:16;;;;;;;12.77;3.55;;;9.60;54.40;;;;;;5037424;28;20525;-67
2024/01/15 11:15:59;;;;;;;6.38;2.03;;;9.50;54.40;;;;;;5024569;28;20057;-66
2024/01/15 11:18:32;;;;;;;5.07;2.80;;;9.40;54.40;;;;;;5040790;28;20142;-69
2024/01/15 11:21:27;;;;;;;16.15;2.75;;;9.30;54.30;;;;;;5049038;28;20509;-67
2024/01/15 11:23:57;;;;;;;10.93;3.92;;;9.10;54.30;;;;;;5047746;28;20040;-66
2024/01/15 11:26:37;;;;;;;14.05;3.40;;;9.00;54.60;;;;;;5025500;28;20053;-69
2024/01/15 11:29:07;;;;;;;12.15;4.18;;;9.00;54.70;;;;;;5042676;28;20096;-73
2024/01/15 11:31:59;;;;;;;9.13;2.75;;;9.00;54.80;;;;;;5038711;28;20075;-70
2024/01/15 11:34:54;;;;;;;4.25;2.67;;;9.00;54.80;;;;;;5035556;28;20722;-71
2024/01/15 11:37:24;;;;;;;5.22;3.42;;;9.00;54.80;;;;;;5039511;28;20811;-71
2024/01/15 11:39:55;;;;;;;80.40;20.00;;;9.00;54.80;;;;;;5033310;28;20057;-69
2024/01/15 11:42:27;;;;;;;4.22;2.85;;;8.90;54.80;;;;;;5040474;28;20574;-85
2024/01/15 11:45:03;;;;;;;30.55;4.43;;;8.90;54.60;;;;;;5049116;28;20568;-64
2024/01/15 11:48:03;;;;;;;18.42;5.07;;;8.90;55.30;;;;;;5051003;28;20585;-70
2024/01/15 11:50:33;;;;;;;13.43;4.00;;;9.00;54.90;;;;;;5018639;28;20045;-69
2024/01/15 11:53:02;;;;;;;5.15;2.85;;;9.10;54.90;;;;;;5051169;28;21516;-67
2024/01/15 11:55:36;;;;;;;10.82;3.38;;;9.30;54.80;;;;;;5031184;28;20056;-70
2024/01/15 11:58:10;;;;;;;7.90;2.03;;;9.30;54.50;;;;;;5033259;28;20061;-71
2024/01/15 12:00:41;;;;;;;2.83;1.33;;;9.40;54.50;;;;;;5028215;28;21188;-70
2024/01/15 12:03:11;;;;;;;5.13;1.88;;;9.40;54.50;;;;;;5056735;28;20059;-72
2024/01/15 12:05:41;;;;;;;8.57;3.92;;;9.40;54.30;;;;;;5031909;28;20123;-71
2024/01/15 12:08:11;;;;;;;4.95;2.53;;;9.40;54.30;;;;;;5026152;28;20797;-83
2024/01/15 12:10:40;;;;;;;2.40;1.65;;;9.40;54.30;;;;;;5024404;28;20055;-70
2024/01/15 12:13:14;;;;;;;4.35;1.92;;;9.30;54.10;;;;;;5031754;28;20080;-73
2024/01/15 12:15:43;;;;;;;3.60;1.85;;;9.30;54.10;;;;;;5043671;28;20047;-82
2024/01/15 12:18:14;;;;;;;1.88;1.17;;;9.20;54.20;;;;;;5035428;28;20077;-72
2024/01/15 12:20:46;;;;;;;5.57;2.78;;;9.20;54.10;;;;;;5040001;28;20145;-71
2024/01/15 12:23:16;;;;;;;10.50;2.83;;;9.20;54.20;;;;;;5034932;28;20061;-72
2024/01/15 12:25:45;;;;;;;6.18;2.42;;;9.10;54.20;;;;;;5035271;28;20066;-71
2024/01/15 12:28:16;;;;;;;5.30;3.00;;;9.10;54.20;;;;;;5032693;28;20045;-68
2024/01/15 12:30:49;;;;;;;10.13;2.40;;;9.00;54.10;;;;;;5027494;28;20131;-81
2024/01/15 12:33:20;;;;;;;4.10;1.23;;;9.00;54.20;;;;;;5028128;28;20507;-72
2024/01/15 12:35:49;;;;;;;6.70;3.35;;;9.00;54.30;;;;;;5029311;28;20045;-69
2024/01/15 12:38:20;;;;;;;9.00;3.13;;;9.00;54.30;;;;;;5034287;28;20061;-72
2024/01/15 12:40:49;;;;;;;11.60;2.17;;;9.00;54.50;;;;;;5030789;28;20056;-69
2024/01/15 12:43:20;;;;;;;6.85;2.70;;;9.10;54.30;;;;;;5024967;28;20069;-67
2024/01/15 12:45:48;;;;;;;5.70;2.90;;;9.20;54.30;;;;;;5017627;28;20108;-68
2024/01/15 12:48:17;;;;;;;3.88;2.20;;;9.20;54.30;;;;;;5028141;28;20071;-67
2024/01/15 12:50:49;;;;;;;7.75;2.40;;;9.30;54.20;;;;;;5022855;28;20060;-68
2024/01/15 12:53:19;;;;;;;4.97;2.40;;;9.20;54.00;;;;;;5053144;28;20147;-66
2024/01/15 12:55:47;;;;;;;7.15;2.88;;;9.20;54.00;;;;;;5036906;28;20053;-67
2024/01/15 12:58:16;;;;;;;7.90;3.00;;;9.20;54.00;;;;;;5039471;28;20052;-68
2024/01/15 13:00:51;;;;;;;8.95;2.50;;;9.20;54.10;;;;;;5022101;28;20061;-66
2024/01/15 13:03:20;;;;;;;7.80;2.50;;;9.20;54.10;;;;;;5036833;28;20852;-70
2024/01/15 13:05:49;;;;;;;7.95;2.83;;;9.10;54.10;;;;;;5035225;28;20232;-66
2024/01/15 13:08:18;;;;;;;5.05;2.85;;;9.10;54.20;;;;;;5037661;28;20455;-71